sensor_id;sensor_type;location;lat;lon;timestamp;temperature;humidity
42979;DHT22;28616;44.746;19.678;2022-09-09T00:00:11;21.70;99.90
42979;DHT22;28616;44.746;19.678;2022-09-09T00:02:38;21.60;99.90
42979;DHT22;28616;44.746;19.678;2022-09-09T00:05:23;21.60;99.90
42979;DHT22;28616;44.746;19.678;2022-09-09T00:07:54;21.60;99.90
42979;DHT22;28616;44.746;19.678;2022-09-09T00:10:30;21.60;99.90
42979;DHT22;28616;44.746;19.678;2022-09-09T00:13:22;21.60;99.90
42979;DHT22;28616;44.746;19.678;2022-09-09T00:16:10;21.60;99.90
42979;DHT22;28616;44.746;19.678;2022-09-09T00:19:00;21.60;99.90
42979;DHT22;28616;44.746;19.678;2022-09-09T00:21:38;21.60;99.90
42979;DHT22;28616;44.746;19.678;2022-09-09T00:24:43;21.60;99.90
42979;DHT22;28616;44.746;19.678;2022-09-09T00:29:53;21.50;99.90
42979;DHT22;28616;44.746;19.678;2022-09-09T00:32:20;21.50;99.90
42979;DHT22;28616;44.746;19.678;2022-09-09T00:35:03;21.60;99.90
42979;DHT22;28616;44.746;19.678;2022-09-09T00:37:29;21.50;99.90
42979;DHT22;28616;44.746;19.678;2022-09-09T00:40:11;21.50;99.90
42979;DHT22;28616;44.746;19.678;2022-09-09T00:42:43;21.50;99.90
42979;DHT22;28616;44.746;19.678;2022-09-09T00:48:11;21.50;99.90
42979;DHT22;28616;44.746;19.678;2022-09-09T00:51:08;21.40;99.90
42979;DHT22;28616;44.746;19.678;2022-09-09T00:53:58;21.40;99.90
42979;DHT22;28616;44.746;19.678;2022-09-09T00:56:38;21.40;99.90
42979;DHT22;28616;44.746;19.678;2022-09-09T00:59:12;21.40;99.90
42979;DHT22;28616;44.746;19.678;2022-09-09T01:01:42;21.40;99.90
42979;DHT22;28616;44.746;19.678;2022-09-09T01:04:16;21.50;99.90
42979;DHT22;28616;44.746;19.678;2022-09-09T01:06:52;21.50;99.90
42979;DHT22;28616;44.746;19.678;2022-09-09T01:17:20;21.50;99.90
42979;DHT22;28616;44.746;19.678;2022-09-09T01:19:57;21.50;99.90
42979;DHT22;28616;44.746;19.678;2022-09-09T01:27:55;21.50;99.90
42979;DHT22;28616;44.746;19.678;2022-09-09T01:30:22;21.50;99.90
42979;DHT22;28616;44.746;19.678;2022-09-09T01:32:52;21.50;99.90
42979;DHT22;28616;44.746;19.678;2022-09-09T01:35:43;21.50;99.90
42979;DHT22;28616;44.746;19.678;2022-09-09T01:38:10;21.50;99.90
42979;DHT22;28616;44.746;19.678;2022-09-09T01:40:36;21.50;99.90
42979;DHT22;28616;44.746;19.678;2022-09-09T01:43:03;21.40;99.90
42979;DHT22;28616;44.746;19.678;2022-09-09T01:45:29;21.50;99.90
42979;DHT22;28616;44.746;19.678;2022-09-09T01:47:56;21.50;99.90
42979;DHT22;28616;44.746;19.678;2022-09-09T01:50:22;21.40;99.90
42979;DHT22;28616;44.746;19.678;2022-09-09T01:52:59;21.40;99.90
42979;DHT22;28616;44.746;19.678;2022-09-09T01:55:33;21.40;99.90
42979;DHT22;28616;44.746;19.678;2022-09-09T02:00:50;21.50;99.90
42979;DHT22;28616;44.746;19.678;2022-09-09T02:03:25;21.50;99.90
42979;DHT22;28616;44.746;19.678;2022-09-09T02:16:21;21.30;99.90
42979;DHT22;28616;44.746;19.678;2022-09-09T02:21:34;21.10;99.90
42979;DHT22;28616;44.746;19.678;2022-09-09T02:24:05;21.00;99.90
42979;DHT22;28616;44.746;19.678;2022-09-09T02:26:40;20.90;99.90
42979;DHT22;28616;44.746;19.678;2022-09-09T02:29:18;20.90;99.90
42979;DHT22;28616;44.746;19.678;2022-09-09T02:31:47;20.90;99.90
42979;DHT22;28616;44.746;19.678;2022-09-09T02:34:15;20.90;99.90
42979;DHT22;28616;44.746;19.678;2022-09-09T02:36:44;20.90;99.90
42979;DHT22;28616;44.746;19.678;2022-09-09T02:39:11;20.90;99.90
42979;DHT22;28616;44.746;19.678;2022-09-09T02:41:40;20.90;99.90
42979;DHT22;28616;44.746;19.678;2022-09-09T02:44:14;20.80;99.90
42979;DHT22;28616;44.746;19.678;2022-09-09T02:55:24;20.90;99.90
42979;DHT22;28616;44.746;19.678;2022-09-09T02:57:53;20.90;99.90
42979;DHT22;28616;44.746;19.678;2022-09-09T03:00:26;20.90;99.90
42979;DHT22;28616;44.746;19.678;2022-09-09T03:02:53;21.00;99.90
42979;DHT22;28616;44.746;19.678;2022-09-09T03:05:22;21.00;99.90
42979;DHT22;28616;44.746;19.678;2022-09-09T03:07:47;21.00;99.90
42979;DHT22;28616;44.746;19.678;2022-09-09T03:10:15;21.00;99.90
42979;DHT22;28616;44.746;19.678;2022-09-09T03:12:40;21.00;99.90
42979;DHT22;28616;44.746;19.678;2022-09-09T03:15:07;21.00;99.90
42979;DHT22;28616;44.746;19.678;2022-09-09T03:17:33;21.00;99.90
42979;DHT22;28616;44.746;19.678;2022-09-09T03:20:00;21.00;99.90
42979;DHT22;28616;44.746;19.678;2022-09-09T03:22:26;21.00;99.90
42979;DHT22;28616;44.746;19.678;2022-09-09T03:24:52;21.00;99.90
42979;DHT22;28616;44.746;19.678;2022-09-09T03:27:18;21.00;99.90
42979;DHT22;28616;44.746;19.678;2022-09-09T03:29:45;21.00;99.90
42979;DHT22;28616;44.746;19.678;2022-09-09T03:32:11;21.00;99.90
42979;DHT22;28616;44.746;19.678;2022-09-09T03:34:37;21.00;99.90
42979;DHT22;28616;44.746;19.678;2022-09-09T03:37:06;20.90;99.90
42979;DHT22;28616;44.746;19.678;2022-09-09T03:39:32;20.90;99.90
42979;DHT22;28616;44.746;19.678;2022-09-09T03:41:57;20.80;99.90
42979;DHT22;28616;44.746;19.678;2022-09-09T03:44:23;20.90;99.90
42979;DHT22;28616;44.746;19.678;2022-09-09T03:46:49;20.90;99.90
42979;DHT22;28616;44.746;19.678;2022-09-09T03:49:15;20.80;99.90
42979;DHT22;28616;44.746;19.678;2022-09-09T03:51:41;20.70;99.90
42979;DHT22;28616;44.746;19.678;2022-09-09T03:54:07;20.80;99.90
42979;DHT22;28616;44.746;19.678;2022-09-09T03:56:35;20.70;99.90
42979;DHT22;28616;44.746;19.678;2022-09-09T03:59:02;20.70;99.90
42979;DHT22;28616;44.746;19.678;2022-09-09T04:01:29;20.70;99.90
42979;DHT22;28616;44.746;19.678;2022-09-09T04:03:54;20.70;99.90
42979;DHT22;28616;44.746;19.678;2022-09-09T04:06:24;20.70;99.90
42979;DHT22;28616;44.746;19.678;2022-09-09T04:08:50;20.70;99.90
42979;DHT22;28616;44.746;19.678;2022-09-09T04:11:17;20.70;99.90
42979;DHT22;28616;44.746;19.678;2022-09-09T04:13:44;20.70;99.90
42979;DHT22;28616;44.746;19.678;2022-09-09T04:16:11;20.70;99.90
42979;DHT22;28616;44.746;19.678;2022-09-09T04:18:38;20.70;99.90
42979;DHT22;28616;44.746;19.678;2022-09-09T04:21:05;20.70;99.90
42979;DHT22;28616;44.746;19.678;2022-09-09T04:23:33;20.70;99.90
42979;DHT22;28616;44.746;19.678;2022-09-09T04:26:00;20.70;99.90
42979;DHT22;28616;44.746;19.678;2022-09-09T04:28:32;20.70;99.90
42979;DHT22;28616;44.746;19.678;2022-09-09T04:31:16;20.70;99.90
42979;DHT22;28616;44.746;19.678;2022-09-09T04:33:43;20.70;99.90
42979;DHT22;28616;44.746;19.678;2022-09-09T04:36:09;20.70;99.90
42979;DHT22;28616;44.746;19.678;2022-09-09T04:38:35;20.70;99.90
42979;DHT22;28616;44.746;19.678;2022-09-09T04:41:01;20.80;99.90
42979;DHT22;28616;44.746;19.678;2022-09-09T04:43:28;20.80;99.90
42979;DHT22;28616;44.746;19.678;2022-09-09T04:45:56;20.80;99.90
42979;DHT22;28616;44.746;19.678;2022-09-09T04:48:22;20.80;99.90
42979;DHT22;28616;44.746;19.678;2022-09-09T04:51:01;20.80;99.90
42979;DHT22;28616;44.746;19.678;2022-09-09T04:53:27;20.80;99.90
42979;DHT22;28616;44.746;19.678;2022-09-09T04:56:14;20.80;99.90
42979;DHT22;28616;44.746;19.678;2022-09-09T04:58:40;20.90;99.90
42979;DHT22;28616;44.746;19.678;2022-09-09T05:01:14;20.90;99.90
42979;DHT22;28616;44.746;19.678;2022-09-09T05:03:40;20.90;99.90
42979;DHT22;28616;44.746;19.678;2022-09-09T05:06:08;20.90;99.90
42979;DHT22;28616;44.746;19.678;2022-09-09T05:08:39;21.00;99.90
42979;DHT22;28616;44.746;19.678;2022-09-09T05:11:20;21.00;99.90
42979;DHT22;28616;44.746;19.678;2022-09-09T05:13:46;21.00;99.90
42979;DHT22;28616;44.746;19.678;2022-09-09T05:16:13;21.00;99.90
42979;DHT22;28616;44.746;19.678;2022-09-09T05:18:40;21.00;99.90
42979;DHT22;28616;44.746;19.678;2022-09-09T05:21:06;21.00;99.90
42979;DHT22;28616;44.746;19.678;2022-09-09T05:23:36;21.10;99.90
42979;DHT22;28616;44.746;19.678;2022-09-09T05:26:03;21.10;99.90
42979;DHT22;28616;44.746;19.678;2022-09-09T05:28:29;21.00;99.90
42979;DHT22;28616;44.746;19.678;2022-09-09T05:30:57;21.00;99.90
42979;DHT22;28616;44.746;19.678;2022-09-09T05:33:24;21.10;99.90
42979;DHT22;28616;44.746;19.678;2022-09-09T05:35:58;21.10;99.90
42979;DHT22;28616;44.746;19.678;2022-09-09T05:38:24;21.10;99.90
42979;DHT22;28616;44.746;19.678;2022-09-09T05:40:51;21.10;99.90
42979;DHT22;28616;44.746;19.678;2022-09-09T05:43:18;21.10;99.90
42979;DHT22;28616;44.746;19.678;2022-09-09T05:45:46;21.20;99.90
42979;DHT22;28616;44.746;19.678;2022-09-09T05:48:14;21.20;99.90
42979;DHT22;28616;44.746;19.678;2022-09-09T05:50:40;21.20;99.90
42979;DHT22;28616;44.746;19.678;2022-09-09T05:53:06;21.20;99.90
42979;DHT22;28616;44.746;19.678;2022-09-09T05:55:32;21.20;99.90
42979;DHT22;28616;44.746;19.678;2022-09-09T05:57:58;21.20;99.90
42979;DHT22;28616;44.746;19.678;2022-09-09T06:00:23;21.20;99.90
42979;DHT22;28616;44.746;19.678;2022-09-09T06:02:52;21.20;99.90
42979;DHT22;28616;44.746;19.678;2022-09-09T06:05:19;21.20;99.90
42979;DHT22;28616;44.746;19.678;2022-09-09T06:07:45;21.20;99.90
42979;DHT22;28616;44.746;19.678;2022-09-09T06:10:11;21.20;99.90
42979;DHT22;28616;44.746;19.678;2022-09-09T06:12:40;21.20;99.90
42979;DHT22;28616;44.746;19.678;2022-09-09T06:15:06;21.20;99.90
42979;DHT22;28616;44.746;19.678;2022-09-09T06:17:34;21.30;99.90
42979;DHT22;28616;44.746;19.678;2022-09-09T06:20:00;21.20;99.90
42979;DHT22;28616;44.746;19.678;2022-09-09T06:22:25;21.20;99.90
42979;DHT22;28616;44.746;19.678;2022-09-09T06:24:51;21.20;99.90
42979;DHT22;28616;44.746;19.678;2022-09-09T06:27:19;21.20;99.90
42979;DHT22;28616;44.746;19.678;2022-09-09T06:29:44;21.20;99.90
42979;DHT22;28616;44.746;19.678;2022-09-09T06:32:10;21.30;99.90
42979;DHT22;28616;44.746;19.678;2022-09-09T06:34:36;21.20;99.90
42979;DHT22;28616;44.746;19.678;2022-09-09T06:37:02;21.20;99.90
42979;DHT22;28616;44.746;19.678;2022-09-09T06:39:28;21.20;99.90
42979;DHT22;28616;44.746;19.678;2022-09-09T06:41:53;21.10;99.90
42979;DHT22;28616;44.746;19.678;2022-09-09T06:44:19;21.20;99.90
42979;DHT22;28616;44.746;19.678;2022-09-09T06:46:46;21.20;99.90
42979;DHT22;28616;44.746;19.678;2022-09-09T06:49:15;21.20;99.90
42979;DHT22;28616;44.746;19.678;2022-09-09T06:51:41;21.30;99.90
42979;DHT22;28616;44.746;19.678;2022-09-09T06:54:10;21.40;99.90
42979;DHT22;28616;44.746;19.678;2022-09-09T06:56:38;21.50;99.90
42979;DHT22;28616;44.746;19.678;2022-09-09T06:59:08;21.50;99.90
42979;DHT22;28616;44.746;19.678;2022-09-09T07:01:39;21.60;99.90
42979;DHT22;28616;44.746;19.678;2022-09-09T07:04:12;21.60;99.90
42979;DHT22;28616;44.746;19.678;2022-09-09T07:06:43;21.60;99.90
42979;DHT22;28616;44.746;19.678;2022-09-09T07:09:12;21.70;99.90
42979;DHT22;28616;44.746;19.678;2022-09-09T07:14:08;21.80;99.90
42979;DHT22;28616;44.746;19.678;2022-09-09T07:16:35;21.80;99.90
42979;DHT22;28616;44.746;19.678;2022-09-09T07:19:03;21.80;99.90
42979;DHT22;28616;44.746;19.678;2022-09-09T07:21:30;21.90;99.90
42979;DHT22;28616;44.746;19.678;2022-09-09T07:23:56;22.00;99.90
42979;DHT22;28616;44.746;19.678;2022-09-09T07:26:25;22.10;99.90
42979;DHT22;28616;44.746;19.678;2022-09-09T07:28:51;22.10;99.90
42979;DHT22;28616;44.746;19.678;2022-09-09T07:31:23;22.20;99.90
42979;DHT22;28616;44.746;19.678;2022-09-09T07:33:49;22.20;99.90
42979;DHT22;28616;44.746;19.678;2022-09-09T07:36:20;22.20;99.90
42979;DHT22;28616;44.746;19.678;2022-09-09T07:38:52;22.30;99.90
42979;DHT22;28616;44.746;19.678;2022-09-09T07:41:21;22.40;99.90
42979;DHT22;28616;44.746;19.678;2022-09-09T07:43:49;22.20;99.90
42979;DHT22;28616;44.746;19.678;2022-09-09T07:46:16;22.20;99.90
42979;DHT22;28616;44.746;19.678;2022-09-09T07:48:50;22.20;99.90
42979;DHT22;28616;44.746;19.678;2022-09-09T07:51:27;22.20;99.90
42979;DHT22;28616;44.746;19.678;2022-09-09T07:53:56;22.20;99.90
42979;DHT22;28616;44.746;19.678;2022-09-09T07:56:23;22.20;99.90
42979;DHT22;28616;44.746;19.678;2022-09-09T07:58:50;22.30;99.90
42979;DHT22;28616;44.746;19.678;2022-09-09T08:01:19;22.50;99.90
42979;DHT22;28616;44.746;19.678;2022-09-09T08:03:47;22.70;99.90
42979;DHT22;28616;44.746;19.678;2022-09-09T08:06:13;22.80;99.90
42979;DHT22;28616;44.746;19.678;2022-09-09T08:08:40;23.10;99.90
42979;DHT22;28616;44.746;19.678;2022-09-09T08:11:16;23.00;99.90
42979;DHT22;28616;44.746;19.678;2022-09-09T08:13:43;23.20;99.90
42979;DHT22;28616;44.746;19.678;2022-09-09T08:16:12;23.20;99.90
42979;DHT22;28616;44.746;19.678;2022-09-09T08:21:22;23.60;99.90
42979;DHT22;28616;44.746;19.678;2022-09-09T08:23:51;23.70;99.90
42979;DHT22;28616;44.746;19.678;2022-09-09T18:01:28;25.30;99.90
42979;DHT22;28616;44.746;19.678;2022-09-09T18:03:55;25.30;99.90
42979;DHT22;28616;44.746;19.678;2022-09-09T18:06:24;25.20;99.90
42979;DHT22;28616;44.746;19.678;2022-09-09T18:08:58;25.20;99.90
42979;DHT22;28616;44.746;19.678;2022-09-09T18:11:27;25.10;99.90
42979;DHT22;28616;44.746;19.678;2022-09-09T18:13:55;25.00;99.90
42979;DHT22;28616;44.746;19.678;2022-09-09T18:16:23;25.00;99.90
42979;DHT22;28616;44.746;19.678;2022-09-09T18:18:50;25.00;99.90
42979;DHT22;28616;44.746;19.678;2022-09-09T18:21:18;25.00;99.90
42979;DHT22;28616;44.746;19.678;2022-09-09T18:23:46;24.90;99.90
42979;DHT22;28616;44.746;19.678;2022-09-09T18:26:16;24.80;99.90
42979;DHT22;28616;44.746;19.678;2022-09-09T18:28:47;24.70;99.90
42979;DHT22;28616;44.746;19.678;2022-09-09T18:31:15;24.70;99.90
42979;DHT22;28616;44.746;19.678;2022-09-09T18:33:43;24.70;99.90
42979;DHT22;28616;44.746;19.678;2022-09-09T18:36:15;24.60;99.90
42979;DHT22;28616;44.746;19.678;2022-09-09T18:38:42;24.50;99.90
42979;DHT22;28616;44.746;19.678;2022-09-09T18:41:25;24.30;99.90
42979;DHT22;28616;44.746;19.678;2022-09-09T18:43:54;24.10;99.90
42979;DHT22;28616;44.746;19.678;2022-09-09T18:46:20;23.40;99.90
42979;DHT22;28616;44.746;19.678;2022-09-09T18:48:47;23.00;99.90
42979;DHT22;28616;44.746;19.678;2022-09-09T18:51:18;22.60;99.90
42979;DHT22;28616;44.746;19.678;2022-09-09T18:53:52;22.40;99.90
42979;DHT22;28616;44.746;19.678;2022-09-09T18:56:18;22.20;99.90
42979;DHT22;28616;44.746;19.678;2022-09-09T18:58:44;22.00;99.90
42979;DHT22;28616;44.746;19.678;2022-09-09T19:01:12;21.70;99.90
42979;DHT22;28616;44.746;19.678;2022-09-09T19:03:39;21.50;99.90
42979;DHT22;28616;44.746;19.678;2022-09-09T19:06:07;21.20;99.90
42979;DHT22;28616;44.746;19.678;2022-09-09T19:08:35;21.00;99.90
42979;DHT22;28616;44.746;19.678;2022-09-09T19:11:03;21.00;99.90
42979;DHT22;28616;44.746;19.678;2022-09-09T19:13:30;20.90;99.90
42979;DHT22;28616;44.746;19.678;2022-09-09T19:16:03;21.00;99.90
42979;DHT22;28616;44.746;19.678;2022-09-09T19:18:30;21.00;99.90
42979;DHT22;28616;44.746;19.678;2022-09-09T19:20:56;20.90;99.90
42979;DHT22;28616;44.746;19.678;2022-09-09T19:23:22;21.00;99.90
42979;DHT22;28616;44.746;19.678;2022-09-09T19:25:48;21.00;99.90
42979;DHT22;28616;44.746;19.678;2022-09-09T19:28:14;20.90;99.90
42979;DHT22;28616;44.746;19.678;2022-09-09T19:30:40;20.90;99.90
42979;DHT22;28616;44.746;19.678;2022-09-09T19:33:09;21.00;99.90
42979;DHT22;28616;44.746;19.678;2022-09-09T19:35:35;21.00;99.90
42979;DHT22;28616;44.746;19.678;2022-09-09T19:38:00;20.90;99.90
42979;DHT22;28616;44.746;19.678;2022-09-09T19:40:26;21.00;99.90
42979;DHT22;28616;44.746;19.678;2022-09-09T19:42:52;21.20;99.90
42979;DHT22;28616;44.746;19.678;2022-09-09T19:45:18;21.10;99.90
42979;DHT22;28616;44.746;19.678;2022-09-09T19:47:44;21.40;99.90
42979;DHT22;28616;44.746;19.678;2022-09-09T19:50:10;21.40;99.90
42979;DHT22;28616;44.746;19.678;2022-09-09T19:52:35;21.20;99.90
42979;DHT22;28616;44.746;19.678;2022-09-09T19:55:02;21.10;99.90
42979;DHT22;28616;44.746;19.678;2022-09-09T19:57:28;21.10;99.90
42979;DHT22;28616;44.746;19.678;2022-09-09T19:59:55;21.00;99.90
42979;DHT22;28616;44.746;19.678;2022-09-09T20:02:22;21.00;99.90
42979;DHT22;28616;44.746;19.678;2022-09-09T20:04:49;20.90;99.90
42979;DHT22;28616;44.746;19.678;2022-09-09T20:07:18;20.60;99.90
42979;DHT22;28616;44.746;19.678;2022-09-09T20:09:43;20.50;99.90
42979;DHT22;28616;44.746;19.678;2022-09-09T20:12:09;20.60;99.90
42979;DHT22;28616;44.746;19.678;2022-09-09T20:14:35;20.50;99.90
42979;DHT22;28616;44.746;19.678;2022-09-09T20:17:01;20.40;99.90
42979;DHT22;28616;44.746;19.678;2022-09-09T20:19:27;20.40;99.90
42979;DHT22;28616;44.746;19.678;2022-09-09T20:21:53;20.50;99.90
42979;DHT22;28616;44.746;19.678;2022-09-09T20:24:20;20.60;99.90
42979;DHT22;28616;44.746;19.678;2022-09-09T20:26:48;20.60;99.90
42979;DHT22;28616;44.746;19.678;2022-09-09T20:32:04;20.60;99.90
42979;DHT22;28616;44.746;19.678;2022-09-09T20:34:30;20.70;99.90
42979;DHT22;28616;44.746;19.678;2022-09-09T20:36:56;20.60;99.90
42979;DHT22;28616;44.746;19.678;2022-09-09T20:39:23;20.70;99.90
42979;DHT22;28616;44.746;19.678;2022-09-09T20:41:50;20.70;99.90
42979;DHT22;28616;44.746;19.678;2022-09-09T20:44:18;20.80;99.90
42979;DHT22;28616;44.746;19.678;2022-09-09T20:46:47;20.70;99.90
42979;DHT22;28616;44.746;19.678;2022-09-09T20:49:15;20.70;99.90
42979;DHT22;28616;44.746;19.678;2022-09-09T20:51:41;20.50;99.90
42979;DHT22;28616;44.746;19.678;2022-09-09T20:54:10;20.60;99.90
42979;DHT22;28616;44.746;19.678;2022-09-09T20:56:39;20.50;99.90
42979;DHT22;28616;44.746;19.678;2022-09-09T20:59:08;20.70;99.90
42979;DHT22;28616;44.746;19.678;2022-09-09T21:01:36;20.60;99.90
42979;DHT22;28616;44.746;19.678;2022-09-09T21:04:03;20.70;99.90
42979;DHT22;28616;44.746;19.678;2022-09-09T21:06:29;20.50;99.90
42979;DHT22;28616;44.746;19.678;2022-09-09T21:08:55;20.70;99.90
42979;DHT22;28616;44.746;19.678;2022-09-09T21:11:24;20.40;99.90
42979;DHT22;28616;44.746;19.678;2022-09-09T21:17:41;20.40;99.90
42979;DHT22;28616;44.746;19.678;2022-09-09T21:20:12;20.30;99.90
42979;DHT22;28616;44.746;19.678;2022-09-09T21:22:58;20.20;99.90
42979;DHT22;28616;44.746;19.678;2022-09-09T21:25:55;20.30;99.90
42979;DHT22;28616;44.746;19.678;2022-09-09T21:31:47;20.40;99.90
42979;DHT22;28616;44.746;19.678;2022-09-09T21:34:13;20.30;99.90
42979;DHT22;28616;44.746;19.678;2022-09-09T21:36:39;20.20;99.90
42979;DHT22;28616;44.746;19.678;2022-09-09T21:39:05;20.40;99.90
42979;DHT22;28616;44.746;19.678;2022-09-09T21:41:31;20.30;99.90
42979;DHT22;28616;44.746;19.678;2022-09-09T21:43:57;20.50;99.90
42979;DHT22;28616;44.746;19.678;2022-09-09T21:46:23;20.30;99.90
42979;DHT22;28616;44.746;19.678;2022-09-09T21:48:51;20.40;99.90
42979;DHT22;28616;44.746;19.678;2022-09-09T21:51:17;20.60;99.90
42979;DHT22;28616;44.746;19.678;2022-09-09T21:53:43;20.50;99.90
42979;DHT22;28616;44.746;19.678;2022-09-09T21:56:12;20.40;99.90
42979;DHT22;28616;44.746;19.678;2022-09-09T21:58:38;20.60;99.90
42979;DHT22;28616;44.746;19.678;2022-09-09T22:01:11;20.70;99.90
42979;DHT22;28616;44.746;19.678;2022-09-09T22:03:38;20.70;99.90
42979;DHT22;28616;44.746;19.678;2022-09-09T22:06:05;20.50;99.90
42979;DHT22;28616;44.746;19.678;2022-09-09T22:08:31;20.70;99.90
42979;DHT22;28616;44.746;19.678;2022-09-09T22:11:08;20.60;99.90
42979;DHT22;28616;44.746;19.678;2022-09-09T22:13:35;20.80;99.90
42979;DHT22;28616;44.746;19.678;2022-09-09T22:16:06;20.70;99.90
42979;DHT22;28616;44.746;19.678;2022-09-09T22:18:32;20.90;99.90
42979;DHT22;28616;44.746;19.678;2022-09-09T22:21:00;20.90;99.90
42979;DHT22;28616;44.746;19.678;2022-09-09T22:23:29;21.00;99.90
42979;DHT22;28616;44.746;19.678;2022-09-09T22:26:03;21.00;99.90
42979;DHT22;28616;44.746;19.678;2022-09-09T22:28:33;20.80;99.90
42979;DHT22;28616;44.746;19.678;2022-09-09T22:31:00;21.00;99.90
42979;DHT22;28616;44.746;19.678;2022-09-09T22:33:26;21.00;99.90
42979;DHT22;28616;44.746;19.678;2022-09-09T22:35:52;21.10;99.90
42979;DHT22;28616;44.746;19.678;2022-09-09T22:38:19;21.00;99.90
42979;DHT22;28616;44.746;19.678;2022-09-09T22:40:47;21.00;99.90
42979;DHT22;28616;44.746;19.678;2022-09-09T22:43:19;21.20;99.90
42979;DHT22;28616;44.746;19.678;2022-09-09T22:45:56;21.00;99.90
42979;DHT22;28616;44.746;19.678;2022-09-09T22:48:39;21.00;99.90
42979;DHT22;28616;44.746;19.678;2022-09-09T22:51:14;20.80;99.90
42979;DHT22;28616;44.746;19.678;2022-09-09T22:54:01;20.90;99.90
42979;DHT22;28616;44.746;19.678;2022-09-09T22:56:37;21.00;99.90
42979;DHT22;28616;44.746;19.678;2022-09-09T22:59:04;20.90;99.90
42979;DHT22;28616;44.746;19.678;2022-09-09T23:01:58;20.90;99.90
42979;DHT22;28616;44.746;19.678;2022-09-09T23:04:45;20.70;99.90
42979;DHT22;28616;44.746;19.678;2022-09-09T23:07:27;20.90;99.90
42979;DHT22;28616;44.746;19.678;2022-09-09T23:10:43;20.70;99.90
42979;DHT22;28616;44.746;19.678;2022-09-09T23:13:22;20.80;99.90
42979;DHT22;28616;44.746;19.678;2022-09-09T23:19:21;21.00;99.90
42979;DHT22;28616;44.746;19.678;2022-09-09T23:21:59;21.00;99.90
42979;DHT22;28616;44.746;19.678;2022-09-09T23:30:45;20.80;99.90
42979;DHT22;28616;44.746;19.678;2022-09-09T23:33:11;20.90;99.90
42979;DHT22;28616;44.746;19.678;2022-09-09T23:35:37;20.80;99.90
42979;DHT22;28616;44.746;19.678;2022-09-09T23:38:03;20.90;99.90
42979;DHT22;28616;44.746;19.678;2022-09-09T23:40:29;20.80;99.90
42979;DHT22;28616;44.746;19.678;2022-09-09T23:42:56;20.70;99.90
42979;DHT22;28616;44.746;19.678;2022-09-09T23:45:22;20.50;99.90
42979;DHT22;28616;44.746;19.678;2022-09-09T23:55:02;20.30;99.90
